Avondale, AZ

2:22 AM MST on July 25, 2016 (GMT -0700)
Cold Water Springs | | Change Station

Elev 978 ft 33.43 °N, 112.31 °W | Updated 6 minutes ago

Clear
Clear
89.4 °F
Feels Like 90 °F
N
4.7
Wind Variable Wind from NW

Today
High -- | Low -- °F
--% Chance of Precip.
Yesterday
High -- | Low -- °F
Precip. -- in
Pressure 29.78 in
Visibility 10.0 miles
Clouds Clear
Heat Index 90 °F
Dew Point 63 °F
Humidity 41%
Rainfall 0.00 in
Snow Depth Not available.
5:37 AM 7:33 PM
Waning Gibbous, 68% visible
METAR KLUF 250858Z AUTO 20015KT 10SM CLR 32/18 A2983 RMK AO2 SLP085 T03220180 52010 $
Pressure 29.78 in
Visibility 10.0 miles
Clouds Clear
Heat Index 90 °F
Dew Point 63 °F
Humidity 41%
Rainfall 0.00 in
Snow Depth Not available.
5:37 AM 7:33 PM
Waning Gibbous, 68% visible
METAR KLUF 250858Z AUTO 20015KT 10SM CLR 32/18 A2983 RMK AO2 SLP085 T03220180 52010 $

10-Day Weather Forecast

Almanac

Astronomy

Jul. 25, 2016 Rise Set
Actual Time
Civil Twilight
Nautical Twilight
Astronomical Twilight
Moon
Length of Visible Light
Length of Day
Tomorrow will be .
, % of the Moon is Illuminated

Today's Extremes

State Highs State Lows

Community

WunderPhotos

Upload Photos

1,927,289 photos uploaded!

WunderBlog® & News

Nearby

Air Quality

  Air Quality AQ Index Pollutant
Not available.

Snow Depth

Station Depth Elevation

Earthquake Activity

City Distance Mag. Time & Date
Minimum magnitude displayed is 2.5.

Coastal Water Temperatures

Place Temperature

Stations

Nearby Weather Stations

Station Location Temp. Windchill Dew Point Humidity Wind Precip. Elev Updated Type
                   

Watches & Warnings

There are currently no watches in effect.